createdAt,value
2018-10-09T00:00:58.781Z,7.70
2018-10-09T00:02:04.293Z,7.70
2018-10-09T00:03:09.759Z,7.70
2018-10-09T00:04:15.313Z,7.70
2018-10-09T00:05:20.765Z,7.70
2018-10-09T00:06:26.311Z,7.60
2018-10-09T00:07:31.750Z,7.60
2018-10-09T00:08:37.280Z,7.60
2018-10-09T00:09:42.965Z,7.60
2018-10-09T00:10:48.380Z,7.60
2018-10-09T00:11:53.916Z,7.60
2018-10-09T00:12:59.529Z,7.70
2018-10-09T00:14:05.314Z,7.70
2018-10-09T00:15:10.839Z,7.70
2018-10-09T00:16:16.544Z,7.70
2018-10-09T00:17:22.049Z,7.70
2018-10-09T00:18:27.511Z,7.60
2018-10-09T00:19:32.969Z,7.60
2018-10-09T00:20:38.479Z,7.60
2018-10-09T00:21:43.942Z,7.60
2018-10-09T00:22:49.537Z,7.60
2018-10-09T00:23:55.008Z,7.60
2018-10-09T00:25:00.389Z,7.60
2018-10-09T00:26:05.912Z,7.60
2018-10-09T00:27:11.325Z,7.60
2018-10-09T00:28:17.031Z,7.60
2018-10-09T00:29:22.537Z,7.60
2018-10-09T00:30:28.157Z,7.60
2018-10-09T00:31:33.617Z,7.60
2018-10-09T00:32:39.792Z,7.60
2018-10-09T00:33:45.350Z,7.60
2018-10-09T00:34:50.932Z,7.60
2018-10-09T00:35:56.376Z,7.60
2018-10-09T00:37:01.898Z,7.60
2018-10-09T00:38:07.624Z,7.60
2018-10-09T00:39:13.234Z,7.60
2018-10-09T00:40:18.789Z,7.50
2018-10-09T00:41:24.242Z,7.50
2018-10-09T00:42:29.846Z,7.40
2018-10-09T00:43:35.302Z,7.40
2018-10-09T00:44:40.840Z,7.40
2018-10-09T00:45:46.445Z,7.40
2018-10-09T00:46:52.230Z,7.30
2018-10-09T00:47:57.766Z,7.30
2018-10-09T00:49:03.226Z,7.30
2018-10-09T00:50:09.277Z,7.30
2018-10-09T00:51:14.862Z,7.30
2018-10-09T00:52:20.313Z,7.30
2018-10-09T00:53:25.832Z,7.30
2018-10-09T00:54:31.268Z,7.40
2018-10-09T00:55:36.768Z,7.40
2018-10-09T00:56:42.344Z,7.40
2018-10-09T00:57:47.945Z,7.40
2018-10-09T00:58:53.663Z,7.40
2018-10-09T00:59:59.261Z,7.40
2018-10-09T01:01:04.793Z,7.40
2018-10-09T01:02:10.344Z,7.40
2018-10-09T01:03:15.847Z,7.50
2018-10-09T01:04:21.374Z,7.40
2018-10-09T01:05:26.995Z,7.40
2018-10-09T01:06:32.465Z,7.40
2018-10-09T01:07:38.172Z,7.50
2018-10-09T01:08:43.663Z,7.50
2018-10-09T01:09:49.195Z,7.50
2018-10-09T01:10:54.664Z,7.50
2018-10-09T01:12:00.332Z,7.40
2018-10-09T01:13:05.788Z,7.40
2018-10-09T01:14:11.278Z,7.40
2018-10-09T01:15:16.835Z,7.40
2018-10-09T01:16:22.305Z,7.40
2018-10-09T01:17:27.801Z,7.40
2018-10-09T01:18:33.326Z,7.40
2018-10-09T01:19:38.872Z,7.40
2018-10-09T01:20:44.466Z,7.40
2018-10-09T01:21:49.911Z,7.40
2018-10-09T01:22:55.452Z,7.40
2018-10-09T01:24:00.936Z,7.40
2018-10-09T01:25:06.469Z,7.40
2018-10-09T01:26:12.055Z,7.40
2018-10-09T01:27:17.608Z,7.40
2018-10-09T01:28:23.126Z,7.30
2018-10-09T01:29:28.637Z,7.30
2018-10-09T01:30:34.746Z,7.30
2018-10-09T01:31:40.188Z,7.30
2018-10-09T01:32:45.738Z,7.30
2018-10-09T01:33:51.204Z,7.20
2018-10-09T01:34:56.645Z,7.30
2018-10-09T01:36:02.248Z,7.30
2018-10-09T01:37:07.888Z,7.30
2018-10-09T01:38:13.365Z,7.20
2018-10-09T01:39:18.881Z,7.20
2018-10-09T01:40:24.446Z,7.20
2018-10-09T01:41:29.909Z,7.20
2018-10-09T01:42:35.441Z,7.20
2018-10-09T01:43:40.927Z,7.20
2018-10-09T01:44:46.378Z,7.20
2018-10-09T01:45:51.942Z,7.20
2018-10-09T01:46:57.685Z,7.20
2018-10-09T01:48:03.093Z,7.20
2018-10-09T01:49:08.654Z,7.20
2018-10-09T01:50:14.282Z,7.20
2018-10-09T01:51:19.904Z,7.20
2018-10-09T01:52:25.393Z,7.20
2018-10-09T01:53:30.976Z,7.20
2018-10-09T01:54:36.426Z,7.20
2018-10-09T01:55:41.869Z,7.20
2018-10-09T01:56:47.293Z,7.20
2018-10-09T01:57:52.714Z,7.30
2018-10-09T01:58:58.224Z,7.30
2018-10-09T02:00:04.066Z,7.30
2018-10-09T02:01:09.569Z,7.30
2018-10-09T02:02:15.175Z,7.30
2018-10-09T02:03:20.622Z,7.30
2018-10-09T02:04:26.044Z,7.20
2018-10-09T02:05:31.514Z,7.20
2018-10-09T02:06:36.971Z,7.20
2018-10-09T02:07:42.519Z,7.20
2018-10-09T02:08:47.980Z,7.20
2018-10-09T02:09:53.489Z,7.20
2018-10-09T02:10:58.933Z,7.20
2018-10-09T02:12:04.341Z,7.10
2018-10-09T02:13:09.890Z,7.10
2018-10-09T02:14:15.377Z,7.10
2018-10-09T02:15:20.824Z,7.10
2018-10-09T02:16:26.278Z,7.10
2018-10-09T02:17:31.734Z,7.10
2018-10-09T02:18:37.165Z,7.10
2018-10-09T02:19:43.029Z,7.10
2018-10-09T02:20:48.552Z,7.10
2018-10-09T02:21:53.954Z,7.10
2018-10-09T02:22:59.492Z,7.10
2018-10-09T02:24:05.174Z,7.10
2018-10-09T02:25:10.714Z,7.10
2018-10-09T02:26:16.520Z,7.10
2018-10-09T02:27:22.065Z,7.10
2018-10-09T02:28:27.572Z,7.10
2018-10-09T02:29:33.000Z,7.10
2018-10-09T02:30:38.638Z,7.10
2018-10-09T02:31:44.250Z,7.10
2018-10-09T02:32:49.700Z,7.10
2018-10-09T02:33:55.196Z,7.10
2018-10-09T02:35:00.601Z,7.10
2018-10-09T02:36:06.197Z,7.10
2018-10-09T02:37:11.737Z,7.10
2018-10-09T02:38:17.194Z,7.10
2018-10-09T02:39:22.757Z,7.10
2018-10-09T02:40:28.186Z,7.10
2018-10-09T02:41:33.617Z,7.10
2018-10-09T02:42:39.202Z,7.10
2018-10-09T02:43:44.668Z,7.10
2018-10-09T02:44:50.422Z,7.10
2018-10-09T02:45:55.860Z,7.10
2018-10-09T02:47:01.363Z,7.20
2018-10-09T02:48:06.998Z,7.20
2018-10-09T02:49:12.468Z,7.20
2018-10-09T02:50:17.965Z,7.20
2018-10-09T02:51:23.635Z,7.20
2018-10-09T02:52:29.116Z,7.20
2018-10-09T02:53:34.563Z,7.20
2018-10-09T02:54:40.051Z,7.20
2018-10-09T02:55:45.553Z,7.30
2018-10-09T02:56:51.038Z,7.20
2018-10-09T02:57:56.666Z,7.20
2018-10-09T02:59:02.193Z,7.20
2018-10-09T03:00:07.894Z,7.20
2018-10-09T03:01:13.410Z,7.30
2018-10-09T03:02:18.838Z,7.20
2018-10-09T03:03:24.335Z,7.20
2018-10-09T03:04:29.921Z,7.20
2018-10-09T03:05:35.362Z,7.20
2018-10-09T03:06:40.890Z,7.20
2018-10-09T03:07:46.385Z,7.20
2018-10-09T03:08:51.806Z,7.20
2018-10-09T03:09:57.253Z,7.30
2018-10-09T03:11:02.912Z,7.20
2018-10-09T03:12:08.636Z,7.30
2018-10-09T03:13:14.093Z,7.20
2018-10-09T03:14:19.621Z,7.20
2018-10-09T03:15:25.149Z,7.20
2018-10-09T03:16:30.576Z,7.20
2018-10-09T03:17:36.009Z,7.20
2018-10-09T03:18:41.674Z,7.20
2018-10-09T03:19:47.429Z,7.20
2018-10-09T03:20:52.935Z,7.10
2018-10-09T03:21:58.409Z,7.20
2018-10-09T03:23:03.859Z,7.10
2018-10-09T03:24:09.421Z,7.10
2018-10-09T03:25:14.847Z,7.10
2018-10-09T03:26:20.427Z,7.10
2018-10-09T03:27:25.912Z,7.10
2018-10-09T03:28:31.516Z,7.10
2018-10-09T03:29:37.042Z,7.10
2018-10-09T03:30:42.577Z,7.10
2018-10-09T03:31:48.052Z,7.10
2018-10-09T03:32:53.509Z,7.10
2018-10-09T03:33:58.917Z,7.10
2018-10-09T03:35:04.454Z,7.00
2018-10-09T03:36:09.942Z,7.10
2018-10-09T03:37:15.626Z,7.00
2018-10-09T03:38:21.026Z,7.10
2018-10-09T03:39:26.472Z,7.10
2018-10-09T03:40:32.113Z,7.10
2018-10-09T03:41:37.635Z,7.10
2018-10-09T03:42:43.158Z,7.10
2018-10-09T03:43:48.644Z,7.10
2018-10-09T03:44:54.120Z,7.10
2018-10-09T03:45:59.653Z,7.00
2018-10-09T03:47:05.133Z,7.00
2018-10-09T03:48:10.546Z,7.00
2018-10-09T03:49:16.078Z,7.00
2018-10-09T03:50:21.574Z,7.00
2018-10-09T03:51:27.028Z,7.00
2018-10-09T03:52:32.590Z,7.00
2018-10-09T03:53:38.064Z,7.00
2018-10-09T03:54:43.722Z,7.00
2018-10-09T03:55:49.329Z,7.00
2018-10-09T03:56:54.761Z,7.00
2018-10-09T03:58:00.497Z,7.00
2018-10-09T03:59:06.157Z,7.00
2018-10-09T04:00:11.769Z,7.00
2018-10-09T04:01:17.213Z,7.00
2018-10-09T04:02:22.765Z,7.00
2018-10-09T04:03:28.259Z,7.00
2018-10-09T04:04:33.898Z,7.00
2018-10-09T04:05:39.460Z,7.00
2018-10-09T04:06:44.970Z,7.10
2018-10-09T04:07:50.516Z,7.10
2018-10-09T04:08:56.030Z,7.10
2018-10-09T04:10:01.469Z,7.10
2018-10-09T04:11:08.717Z,7.10
2018-10-09T04:12:14.267Z,7.10
2018-10-09T04:13:19.740Z,7.10
2018-10-09T04:14:25.327Z,7.10
2018-10-09T04:15:30.813Z,7.20
2018-10-09T04:16:36.287Z,7.10
2018-10-09T04:17:41.909Z,7.10
2018-10-09T04:18:47.412Z,7.10
2018-10-09T04:19:53.441Z,7.20
2018-10-09T04:20:59.016Z,7.20
2018-10-09T04:22:04.797Z,7.20
2018-10-09T04:23:10.191Z,7.20
2018-10-09T04:24:15.940Z,7.20
2018-10-09T04:25:21.870Z,7.20
2018-10-09T04:26:27.449Z,7.20
2018-10-09T04:27:33.207Z,7.20
2018-10-09T04:28:39.260Z,7.20
2018-10-09T04:29:44.764Z,7.20
2018-10-09T04:30:50.237Z,7.30
2018-10-09T04:31:55.762Z,7.30
2018-10-09T04:33:01.276Z,7.20
2018-10-09T04:34:07.470Z,7.30
2018-10-09T04:35:13.045Z,7.20
2018-10-09T04:36:18.645Z,7.30
2018-10-09T04:37:24.077Z,7.20
2018-10-09T04:38:29.796Z,7.20
2018-10-09T04:39:35.441Z,7.20
2018-10-09T04:40:41.334Z,7.20
2018-10-09T04:41:46.823Z,7.20
2018-10-09T04:42:52.529Z,7.20
2018-10-09T04:43:58.115Z,7.20
2018-10-09T04:45:03.615Z,7.20
2018-10-09T04:46:09.148Z,7.20
2018-10-09T04:47:14.681Z,7.20
2018-10-09T04:48:20.312Z,7.20
2018-10-09T04:49:25.821Z,7.20
2018-10-09T04:50:31.849Z,7.20
2018-10-09T04:51:37.277Z,7.20
2018-10-09T04:52:42.741Z,7.20
2018-10-09T04:53:48.215Z,7.10
2018-10-09T04:54:53.686Z,7.10
2018-10-09T04:55:59.384Z,7.20
2018-10-09T04:57:04.878Z,7.10
2018-10-09T04:58:10.314Z,7.10
2018-10-09T04:59:15.733Z,7.10
2018-10-09T05:00:21.334Z,7.10
2018-10-09T05:01:26.761Z,7.10
2018-10-09T05:02:32.276Z,7.10
2018-10-09T05:03:37.889Z,7.10
2018-10-09T05:04:43.440Z,7.10
2018-10-09T05:05:49.050Z,7.10
2018-10-09T05:06:54.614Z,7.10
2018-10-09T05:08:00.116Z,7.10
2018-10-09T05:09:09.765Z,7.10
2018-10-09T05:10:15.206Z,7.10
2018-10-09T05:11:20.674Z,7.10
2018-10-09T05:12:26.152Z,7.10
2018-10-09T05:13:31.658Z,7.10
2018-10-09T05:14:37.079Z,7.10
2018-10-09T05:15:42.758Z,7.10
2018-10-09T05:16:48.221Z,7.10
2018-10-09T05:17:53.957Z,7.10
2018-10-09T05:18:59.692Z,7.10
2018-10-09T05:20:06.723Z,7.10
2018-10-09T05:21:12.331Z,7.10
2018-10-09T05:22:17.809Z,7.10
2018-10-09T05:23:23.450Z,7.10
2018-10-09T05:24:28.817Z,7.10
2018-10-09T05:25:34.362Z,7.10
2018-10-09T05:26:39.876Z,7.10
2018-10-09T05:27:45.342Z,7.10
2018-10-09T05:28:51.051Z,7.10
2018-10-09T05:29:56.673Z,7.10
2018-10-09T05:31:02.209Z,7.10
2018-10-09T05:32:07.673Z,7.10
2018-10-09T05:33:13.120Z,7.10
2018-10-09T05:34:18.746Z,7.10
2018-10-09T05:35:24.263Z,7.10
2018-10-09T05:36:29.853Z,7.10
2018-10-09T05:37:35.372Z,7.10
2018-10-09T05:38:41.028Z,7.10
2018-10-09T05:39:46.478Z,7.10
2018-10-09T05:40:51.994Z,7.10
2018-10-09T05:41:57.520Z,7.10
2018-10-09T05:43:03.091Z,7.10
2018-10-09T05:44:08.643Z,7.10
2018-10-09T05:45:14.065Z,7.10
2018-10-09T05:46:19.597Z,7.00
2018-10-09T05:47:25.134Z,7.00
2018-10-09T05:48:30.633Z,7.00
2018-10-09T05:49:36.109Z,6.90
2018-10-09T05:50:41.607Z,6.90
2018-10-09T05:51:47.152Z,7.00
2018-10-09T05:52:52.797Z,6.90
2018-10-09T05:53:58.379Z,6.90
2018-10-09T05:55:03.829Z,6.90
2018-10-09T05:56:09.897Z,6.90
2018-10-09T05:57:15.474Z,6.90
2018-10-09T05:58:21.024Z,6.90
2018-10-09T05:59:26.665Z,6.90
2018-10-09T06:00:32.221Z,6.90
2018-10-09T06:01:37.757Z,6.90
2018-10-09T06:02:43.215Z,6.90
2018-10-09T06:03:48.777Z,7.00
2018-10-09T06:04:54.330Z,7.00
2018-10-09T06:05:59.966Z,7.00
2018-10-09T06:07:05.638Z,7.00
2018-10-09T06:08:11.106Z,7.00
2018-10-09T06:09:16.644Z,7.00
2018-10-09T06:10:22.418Z,7.00
2018-10-09T06:11:28.113Z,7.10
2018-10-09T06:12:33.620Z,7.10
2018-10-09T06:13:39.072Z,7.10
2018-10-09T06:14:44.709Z,7.10
2018-10-09T06:15:50.329Z,7.10
2018-10-09T06:16:55.949Z,7.20
2018-10-09T06:18:01.410Z,7.20
2018-10-09T06:19:06.992Z,7.20
2018-10-09T06:20:12.456Z,7.20
2018-10-09T06:21:18.021Z,7.30
2018-10-09T06:22:23.480Z,7.30
2018-10-09T06:23:28.952Z,7.30
2018-10-09T06:24:34.420Z,7.30
2018-10-09T06:25:39.892Z,7.30
2018-10-09T06:26:45.616Z,7.30
2018-10-09T06:27:51.293Z,7.30
2018-10-09T06:28:56.813Z,7.30
2018-10-09T06:30:02.357Z,7.30
2018-10-09T06:31:08.518Z,7.30
2018-10-09T06:32:14.130Z,7.30
2018-10-09T06:33:19.805Z,7.30
2018-10-09T06:34:25.332Z,7.30
2018-10-09T06:35:30.854Z,7.40
2018-10-09T06:36:36.337Z,7.40
2018-10-09T06:37:41.835Z,7.40
2018-10-09T06:38:47.318Z,7.40
2018-10-09T06:39:52.853Z,7.50
2018-10-09T06:40:58.313Z,7.50
2018-10-09T06:42:03.816Z,7.50
2018-10-09T06:43:09.253Z,7.60
2018-10-09T06:44:14.814Z,7.60
2018-10-09T06:45:20.253Z,7.70
2018-10-09T06:46:25.688Z,7.70
2018-10-09T06:47:31.355Z,7.80
2018-10-09T06:48:36.991Z,7.80
2018-10-09T06:49:42.472Z,7.90
2018-10-09T06:50:48.245Z,8.00
2018-10-09T06:51:53.753Z,8.10
2018-10-09T06:52:59.241Z,8.10
2018-10-09T06:54:04.847Z,8.20
2018-10-09T06:55:10.287Z,8.30
2018-10-09T06:56:15.782Z,8.30
2018-10-09T06:57:21.356Z,8.30
2018-10-09T06:58:26.871Z,8.40
2018-10-09T06:59:32.364Z,8.40
2018-10-09T07:00:37.836Z,8.50
2018-10-09T07:01:43.426Z,8.50
2018-10-09T07:02:48.925Z,8.50
2018-10-09T07:03:54.480Z,8.50
2018-10-09T07:04:59.993Z,8.50
2018-10-09T07:06:05.512Z,8.50
2018-10-09T07:07:10.978Z,8.60
2018-10-09T07:08:16.533Z,8.60
2018-10-09T07:09:22.129Z,8.60
2018-10-09T07:10:27.716Z,8.60
2018-10-09T07:11:33.159Z,8.60
2018-10-09T07:12:38.781Z,8.70
2018-10-09T07:13:44.379Z,8.60
2018-10-09T07:14:49.925Z,8.70
2018-10-09T07:15:55.390Z,8.60
2018-10-09T07:17:00.892Z,8.60
2018-10-09T07:18:06.289Z,8.70
2018-10-09T07:19:11.908Z,8.70
2018-10-09T07:20:17.479Z,8.70
2018-10-09T07:21:23.006Z,8.80
2018-10-09T07:22:28.738Z,8.80
2018-10-09T07:23:34.769Z,8.90
2018-10-09T07:24:40.230Z,8.90
2018-10-09T07:25:45.660Z,8.90
2018-10-09T07:26:51.229Z,8.90
2018-10-09T07:27:56.733Z,9.00
2018-10-09T07:29:02.163Z,8.90
2018-10-09T07:30:09.057Z,8.90
2018-10-09T07:31:14.597Z,9.00
2018-10-09T07:32:20.157Z,9.00
2018-10-09T07:33:25.674Z,8.90
2018-10-09T07:34:31.173Z,8.90
2018-10-09T07:35:36.814Z,8.90
2018-10-09T07:36:42.507Z,8.90
2018-10-09T07:37:48.040Z,8.90
2018-10-09T07:38:53.721Z,8.90
2018-10-09T07:39:59.185Z,8.90
2018-10-09T07:41:04.666Z,8.90
2018-10-09T07:42:10.164Z,8.90
2018-10-09T07:43:15.624Z,8.90
2018-10-09T07:44:21.188Z,8.90
2018-10-09T07:45:26.599Z,8.80
2018-10-09T07:46:32.064Z,8.80
2018-10-09T07:47:37.530Z,8.90
2018-10-09T07:48:42.969Z,8.90
2018-10-09T07:49:48.542Z,8.90
2018-10-09T07:50:54.038Z,8.90
2018-10-09T07:51:59.577Z,9.00
2018-10-09T07:53:05.091Z,9.00
2018-10-09T07:54:10.616Z,9.10
2018-10-09T07:55:16.174Z,9.20
2018-10-09T07:56:21.625Z,9.30
2018-10-09T07:57:27.153Z,9.40
2018-10-09T07:58:32.904Z,9.50
2018-10-09T07:59:38.413Z,9.60
2018-10-09T08:00:43.937Z,9.70
2018-10-09T08:01:49.446Z,9.80
2018-10-09T08:02:54.978Z,9.90
2018-10-09T08:04:00.495Z,9.90
2018-10-09T08:05:06.051Z,10.00
2018-10-09T08:06:11.552Z,10.10
2018-10-09T08:07:19.631Z,10.20
2018-10-09T08:08:25.330Z,10.30
2018-10-09T08:09:30.838Z,10.40
2018-10-09T08:10:36.446Z,10.40
2018-10-09T08:11:41.817Z,10.50
2018-10-09T08:12:47.374Z,10.50
2018-10-09T08:13:52.908Z,10.50
2018-10-09T08:14:58.449Z,10.50
2018-10-09T08:16:03.962Z,10.60
2018-10-09T08:17:09.486Z,10.70
2018-10-09T08:18:14.994Z,10.80
2018-10-09T08:19:20.481Z,10.90
2018-10-09T08:20:26.080Z,11.00
2018-10-09T08:21:31.609Z,11.00
2018-10-09T08:22:37.259Z,11.10
2018-10-09T08:23:42.732Z,11.10
2018-10-09T08:24:48.481Z,11.10
2018-10-09T08:25:54.057Z,11.10
2018-10-09T08:26:59.578Z,11.10
2018-10-09T08:28:05.123Z,11.10
2018-10-09T08:29:10.585Z,11.00
2018-10-09T08:30:16.118Z,11.10
2018-10-09T08:31:21.954Z,11.10
2018-10-09T08:32:27.450Z,11.20
2018-10-09T08:33:33.077Z,11.20
2018-10-09T08:34:38.722Z,11.20
2018-10-09T08:35:44.193Z,11.20
2018-10-09T08:36:49.717Z,11.20
2018-10-09T08:37:55.221Z,11.40
2018-10-09T08:39:00.756Z,11.40
2018-10-09T08:40:07.141Z,11.50
2018-10-09T08:41:12.641Z,11.60
2018-10-09T08:42:18.170Z,11.60
2018-10-09T08:43:23.626Z,11.80
2018-10-09T08:44:29.125Z,11.90
2018-10-09T08:45:34.610Z,11.90
2018-10-09T08:46:40.147Z,12.10
2018-10-09T08:47:45.665Z,12.20
2018-10-09T08:48:51.089Z,12.30
2018-10-09T08:49:56.761Z,12.30
2018-10-09T08:51:02.229Z,12.40
2018-10-09T08:52:07.739Z,12.50
2018-10-09T08:53:13.777Z,12.60
2018-10-09T08:54:19.317Z,12.70
2018-10-09T08:55:24.926Z,12.80
2018-10-09T08:56:30.754Z,12.80
2018-10-09T08:57:36.220Z,12.90
2018-10-09T08:58:41.733Z,13.00
2018-10-09T08:59:47.219Z,13.20
2018-10-09T09:00:52.777Z,13.30
2018-10-09T09:01:58.360Z,13.30
2018-10-09T09:03:03.824Z,13.50
2018-10-09T09:04:09.329Z,13.50
2018-10-09T09:05:14.769Z,13.70
2018-10-09T09:06:20.317Z,13.70
2018-10-09T09:07:25.772Z,13.80
2018-10-09T09:08:31.316Z,13.80
2018-10-09T09:09:36.741Z,13.70
2018-10-09T09:10:42.256Z,13.70
2018-10-09T09:11:47.844Z,13.60
2018-10-09T09:12:53.313Z,13.60
2018-10-09T09:13:58.831Z,13.70
2018-10-09T09:15:04.402Z,13.80
2018-10-09T09:16:09.977Z,13.80
2018-10-09T09:17:15.637Z,13.70
2018-10-09T09:18:21.247Z,13.80
2018-10-09T09:19:26.871Z,13.80
2018-10-09T09:20:32.374Z,13.90
2018-10-09T09:21:37.874Z,14.10
2018-10-09T09:22:43.574Z,14.20
2018-10-09T09:23:49.145Z,14.40
2018-10-09T09:24:54.684Z,14.50
2018-10-09T09:26:00.238Z,14.60
2018-10-09T09:27:05.886Z,14.60
2018-10-09T09:28:11.421Z,14.60
2018-10-09T09:29:16.992Z,14.50
2018-10-09T09:30:22.569Z,14.50
2018-10-09T09:31:28.478Z,14.50
2018-10-09T09:32:34.024Z,14.50
2018-10-09T09:33:39.476Z,14.50
2018-10-09T09:34:45.056Z,14.40
2018-10-09T09:35:50.673Z,14.60
2018-10-09T09:36:56.212Z,14.70
2018-10-09T09:38:01.650Z,14.70
2018-10-09T09:39:09.551Z,14.80
2018-10-09T09:40:15.008Z,14.80
2018-10-09T09:41:20.797Z,14.90
2018-10-09T09:42:26.274Z,15.00
2018-10-09T09:43:31.778Z,15.10
2018-10-09T09:44:37.281Z,15.10
2018-10-09T09:45:42.950Z,15.20
2018-10-09T09:46:48.466Z,15.30
2018-10-09T09:47:53.987Z,15.40
2018-10-09T09:48:59.470Z,15.40
2018-10-09T09:50:05.280Z,15.50
2018-10-09T09:51:10.733Z,15.60
2018-10-09T09:52:16.433Z,15.70
2018-10-09T09:53:21.909Z,15.80
2018-10-09T09:54:27.334Z,15.90
2018-10-09T09:55:32.772Z,15.90
2018-10-09T09:56:38.274Z,16.00
2018-10-09T09:57:44.005Z,16.10
2018-10-09T09:58:49.892Z,16.20
2018-10-09T09:59:55.196Z,16.40
2018-10-09T10:01:05.862Z,16.40
2018-10-09T10:02:11.394Z,16.50
2018-10-09T10:03:16.878Z,16.50
2018-10-09T10:04:22.445Z,16.60
2018-10-09T10:05:28.043Z,16.60
2018-10-09T10:06:33.585Z,16.40
2018-10-09T10:07:39.145Z,16.40
2018-10-09T10:08:44.845Z,16.40
2018-10-09T10:09:50.401Z,16.40
2018-10-09T10:10:55.889Z,16.40
2018-10-09T10:12:01.441Z,16.30
2018-10-09T10:13:06.970Z,16.40
2018-10-09T10:14:12.688Z,16.40
2018-10-09T10:15:18.534Z,16.50
2018-10-09T10:16:24.249Z,16.60
2018-10-09T10:17:29.681Z,16.70
2018-10-09T10:18:35.319Z,16.70
2018-10-09T10:19:41.014Z,16.80
2018-10-09T10:20:46.554Z,16.90
2018-10-09T10:21:52.153Z,16.90
2018-10-09T10:22:57.595Z,16.90
2018-10-09T10:24:03.094Z,17.00
2018-10-09T10:25:08.703Z,17.10
2018-10-09T10:26:14.335Z,17.20
2018-10-09T10:27:19.836Z,17.10
2018-10-09T10:28:25.305Z,17.10
2018-10-09T10:29:30.832Z,17.10
2018-10-09T10:30:36.370Z,17.20
2018-10-09T10:31:41.837Z,17.20
2018-10-09T10:32:47.523Z,17.30
2018-10-09T10:33:53.049Z,17.30
2018-10-09T10:34:58.583Z,17.30
2018-10-09T10:36:04.042Z,17.40
2018-10-09T10:37:09.481Z,17.40
2018-10-09T10:38:15.107Z,17.50
2018-10-09T10:39:22.034Z,17.60
2018-10-09T10:40:27.473Z,17.70
2018-10-09T10:41:33.041Z,17.70
2018-10-09T10:42:38.504Z,17.60
2018-10-09T10:43:44.287Z,17.70
2018-10-09T10:44:49.973Z,17.80
2018-10-09T10:45:55.441Z,17.70
2018-10-09T10:47:00.952Z,17.80
2018-10-09T10:48:06.869Z,17.80
2018-10-09T10:49:13.822Z,17.90
2018-10-09T10:50:19.370Z,17.80
2018-10-09T10:51:24.840Z,17.70
2018-10-09T10:52:30.320Z,17.60
2018-10-09T10:53:35.860Z,17.60
2018-10-09T10:54:41.397Z,17.60
2018-10-09T10:55:46.814Z,17.60
2018-10-09T10:56:52.281Z,17.50
2018-10-09T10:57:57.818Z,17.60
2018-10-09T10:59:03.439Z,17.50
2018-10-09T11:00:08.973Z,17.50
2018-10-09T11:01:14.540Z,17.50
2018-10-09T11:02:20.055Z,17.50
2018-10-09T11:03:25.525Z,17.50
2018-10-09T11:04:31.015Z,17.60
2018-10-09T11:05:36.689Z,17.70
2018-10-09T11:06:42.290Z,17.80
2018-10-09T11:07:47.991Z,17.80
2018-10-09T11:08:53.486Z,17.90
2018-10-09T11:09:59.009Z,18.00
2018-10-09T11:11:04.550Z,18.10
2018-10-09T11:12:10.146Z,18.10
2018-10-09T11:13:15.721Z,18.20
2018-10-09T11:14:21.194Z,18.20
2018-10-09T11:15:26.678Z,18.30
2018-10-09T11:16:32.260Z,18.30
2018-10-09T11:17:37.915Z,18.50
2018-10-09T11:18:43.392Z,18.50
2018-10-09T11:19:48.868Z,18.60
2018-10-09T11:20:54.363Z,18.60
2018-10-09T11:21:59.884Z,18.70
2018-10-09T11:23:05.402Z,18.60
2018-10-09T11:24:10.876Z,18.70
2018-10-09T11:25:16.417Z,18.70
2018-10-09T11:26:21.898Z,18.60
2018-10-09T11:27:27.618Z,18.50
2018-10-09T11:28:33.148Z,18.30
2018-10-09T11:29:39.183Z,18.40
2018-10-09T11:30:44.659Z,18.30
2018-10-09T11:31:50.349Z,18.30
2018-10-09T11:32:55.749Z,18.20
2018-10-09T11:34:01.202Z,18.10
2018-10-09T11:35:06.766Z,18.00
2018-10-09T11:36:12.307Z,17.90
2018-10-09T11:37:17.801Z,17.90
2018-10-09T11:38:23.317Z,18.00
2018-10-09T11:39:28.790Z,17.90
2018-10-09T11:40:34.248Z,18.00
2018-10-09T11:41:39.777Z,18.00
2018-10-09T11:42:45.349Z,18.10
2018-10-09T11:43:50.911Z,18.20
2018-10-09T11:44:56.400Z,18.30
2018-10-09T11:46:01.900Z,18.40
2018-10-09T11:47:07.593Z,18.40
2018-10-09T11:48:13.190Z,18.40
2018-10-09T11:49:18.771Z,18.40
2018-10-09T11:50:24.218Z,18.40
2018-10-09T11:51:29.725Z,18.40
2018-10-09T11:52:35.277Z,18.40
2018-10-09T11:53:40.719Z,18.50
2018-10-09T11:54:46.344Z,18.60
2018-10-09T11:55:51.835Z,18.60
2018-10-09T11:56:57.256Z,18.60
2018-10-09T11:58:02.737Z,18.50
2018-10-09T11:59:08.395Z,18.40
2018-10-09T12:00:13.805Z,18.30
2018-10-09T12:01:19.376Z,18.20
2018-10-09T12:02:24.837Z,18.20
2018-10-09T12:03:30.412Z,18.10
2018-10-09T12:04:36.253Z,18.00
2018-10-09T12:05:41.776Z,18.00
2018-10-09T12:06:47.301Z,17.90
2018-10-09T12:07:52.986Z,17.90
2018-10-09T12:08:58.489Z,17.90
2018-10-09T12:10:04.001Z,17.90
2018-10-09T12:11:09.576Z,17.90
2018-10-09T12:12:15.150Z,17.90
2018-10-09T12:13:20.633Z,17.90
2018-10-09T12:14:26.057Z,17.90
2018-10-09T12:15:31.592Z,18.00
2018-10-09T12:16:37.129Z,18.00
2018-10-09T12:17:42.589Z,18.00
2018-10-09T12:18:48.092Z,18.10
2018-10-09T12:19:53.648Z,18.10
2018-10-09T12:20:59.213Z,18.10
2018-10-09T12:22:04.673Z,18.00
2018-10-09T12:23:10.145Z,18.00
2018-10-09T12:24:15.601Z,17.90
2018-10-09T12:25:21.181Z,18.00
2018-10-09T12:26:26.652Z,17.80
2018-10-09T12:27:32.160Z,17.80
2018-10-09T12:28:37.696Z,17.70
2018-10-09T12:29:43.195Z,17.70
2018-10-09T12:30:48.893Z,17.70
2018-10-09T12:31:54.373Z,17.70
2018-10-09T12:32:59.884Z,17.70
2018-10-09T12:34:05.978Z,17.80
2018-10-09T12:35:11.555Z,17.70
2018-10-09T12:36:17.097Z,17.80
2018-10-09T12:37:22.534Z,17.80
2018-10-09T12:38:28.114Z,17.80
2018-10-09T12:39:33.532Z,17.90
2018-10-09T12:40:38.997Z,17.80
2018-10-09T12:41:44.493Z,17.80
2018-10-09T12:42:49.961Z,17.80
2018-10-09T12:43:55.457Z,17.90
2018-10-09T12:45:00.931Z,18.00
2018-10-09T12:46:06.372Z,18.00
2018-10-09T12:47:11.918Z,18.10
2018-10-09T12:48:17.485Z,18.20
2018-10-09T12:49:22.972Z,18.20
2018-10-09T12:50:28.417Z,18.30
2018-10-09T12:51:34.000Z,18.40
2018-10-09T12:52:39.806Z,18.40
2018-10-09T12:53:45.386Z,18.40
2018-10-09T12:54:50.929Z,18.50
2018-10-09T12:55:56.463Z,18.50
2018-10-09T12:57:01.996Z,18.50
2018-10-09T12:58:07.613Z,18.50
2018-10-09T12:59:13.045Z,18.60
2018-10-09T13:00:18.519Z,18.60
2018-10-09T13:01:31.026Z,18.60
2018-10-09T13:02:36.571Z,18.60
2018-10-09T13:03:42.182Z,18.50
2018-10-09T13:04:47.605Z,18.50
2018-10-09T13:05:53.080Z,18.50
2018-10-09T13:06:58.598Z,18.40
2018-10-09T13:08:04.193Z,18.50
2018-10-09T13:09:12.821Z,18.40
2018-10-09T13:10:18.337Z,18.50
2018-10-09T13:11:23.901Z,18.50
2018-10-09T13:12:29.453Z,18.50
2018-10-09T13:13:34.971Z,18.50
2018-10-09T13:14:40.543Z,18.50
2018-10-09T13:15:45.985Z,18.50
2018-10-09T13:16:51.477Z,18.50
2018-10-09T13:17:56.956Z,18.50
2018-10-09T13:19:02.525Z,18.50
2018-10-09T13:20:08.127Z,18.50
2018-10-09T13:21:13.667Z,18.50
2018-10-09T13:22:19.440Z,18.40
2018-10-09T13:23:24.631Z,18.30
2018-10-09T13:24:30.098Z,18.20
2018-10-09T13:25:35.752Z,18.10
2018-10-09T13:26:41.384Z,18.10
2018-10-09T13:27:46.910Z,18.10
2018-10-09T13:28:52.539Z,18.10
2018-10-09T13:29:58.838Z,18.10
2018-10-09T13:31:04.405Z,18.00
2018-10-09T13:32:09.926Z,17.90
2018-10-09T13:33:15.611Z,18.00
2018-10-09T13:34:21.397Z,18.00
2018-10-09T13:35:26.928Z,17.90
2018-10-09T13:36:32.636Z,17.90
2018-10-09T13:37:38.228Z,17.90
2018-10-09T13:38:43.770Z,17.90
2018-10-09T13:39:49.296Z,17.80
2018-10-09T13:40:55.173Z,17.80
2018-10-09T13:42:00.698Z,17.80
2018-10-09T13:43:06.291Z,17.80
2018-10-09T13:44:11.801Z,17.70
2018-10-09T13:45:17.257Z,17.60
2018-10-09T13:46:22.781Z,17.60
2018-10-09T13:47:28.412Z,17.50
2018-10-09T13:48:34.017Z,17.50
2018-10-09T13:49:39.496Z,17.40
2018-10-09T13:50:45.003Z,17.40
2018-10-09T13:51:50.504Z,17.30
2018-10-09T13:52:56.092Z,17.30
2018-10-09T13:54:01.633Z,17.30
2018-10-09T13:55:07.378Z,17.20
2018-10-09T13:56:13.371Z,17.30
2018-10-09T13:57:19.067Z,17.20
2018-10-09T13:58:24.720Z,17.20
2018-10-09T13:59:30.331Z,17.20
2018-10-09T14:00:35.864Z,17.20
2018-10-09T14:01:41.357Z,17.20
2018-10-09T14:02:46.831Z,17.20
2018-10-09T14:03:52.483Z,17.20
2018-10-09T14:04:58.054Z,17.20
2018-10-09T14:06:03.566Z,17.20
2018-10-09T14:07:09.077Z,17.10
2018-10-09T14:08:14.708Z,17.10
2018-10-09T14:09:20.317Z,17.10
2018-10-09T14:10:25.849Z,17.00
2018-10-09T14:11:31.293Z,17.00
2018-10-09T14:12:36.809Z,17.00
2018-10-09T14:13:42.360Z,17.00
2018-10-09T14:14:47.841Z,17.00
2018-10-09T14:15:53.361Z,16.90
2018-10-09T14:16:58.879Z,17.00
2018-10-09T14:18:04.364Z,16.90
2018-10-09T14:19:09.897Z,16.90
2018-10-09T14:20:15.559Z,16.90